Leoville, Canada
Current Conditions -  °F | °C
As of 6:00 PM on Friday 28 Nov 2014 (Local Time) from CYLJ Reporting Station
Light Snow Light Snow  
Wind Chill: -33°   Ceiling: 1500
Heat Index: -21°   Visibility: 3mi
Dew Point: -24°   Wind: 15mph
Humidity: 77%   Direction: 40°NE
Pressure: 29.79"   Gusts: NA
Location:  53.63°N, 107.55°W
Report Text: CYLJ 290000Z 04013KT 3SM -SN DRSN BKN015 OVC030 M21/M24 A2979 RMK SC6SC2 /S02/SN COV/ONE LOOSE/LAST OB/NXT 291200 UTC SLP139
Loading
Personal Weather Stations






























Interactive Weather Map New forecast layout! Learn more

10-Day Weather Forecast

Advertisements
Track Severe Weather on mobile